sensor_id;sensor_type;location;lat;lon;timestamp;noise_LAeq;noise_LA_min;noise_LA_max;noise_LA01;noise_LA95
66456;Laerm;56833;52.254;5.598;2023-02-15T00:00:00;46.30;44.70;47.18;;
66456;Laerm;56833;52.254;5.598;2023-02-15T00:00:11;46.29;45.11;47.57;;
66456;Laerm;56833;52.254;5.598;2023-02-15T00:00:22;46.32;45.17;47.29;;
66456;Laerm;56833;52.254;5.598;2023-02-15T00:00:32;46.32;45.02;47.16;;
66456;Laerm;56833;52.254;5.598;2023-02-15T00:00:42;46.28;45.06;47.37;;
66456;Laerm;56833;52.254;5.598;2023-02-15T00:00:52;46.27;45.45;47.15;;
66456;Laerm;56833;52.254;5.598;2023-02-15T00:01:05;46.26;45.11;47.41;;
66456;Laerm;56833;52.254;5.598;2023-02-15T00:01:16;46.29;45.46;47.31;;
66456;Laerm;56833;52.254;5.598;2023-02-15T00:01:26;46.28;45.21;47.29;;
66456;Laerm;56833;52.254;5.598;2023-02-15T00:01:37;46.29;45.12;47.37;;
66456;Laerm;56833;52.254;5.598;2023-02-15T00:01:47;46.29;45.17;47.47;;
66456;Laerm;56833;52.254;5.598;2023-02-15T00:01:57;46.26;45.22;47.28;;
66456;Laerm;56833;52.254;5.598;2023-02-15T00:02:08;46.29;45.37;47.26;;
66456;Laerm;56833;52.254;5.598;2023-02-15T00:02:18;46.27;45.35;47.45;;
66456;Laerm;56833;52.254;5.598;2023-02-15T00:02:29;46.26;45.37;47.60;;
66456;Laerm;56833;52.254;5.598;2023-02-15T00:02:40;46.28;45.10;47.19;;
66456;Laerm;56833;52.254;5.598;2023-02-15T00:02:50;46.27;45.20;47.17;;
66456;Laerm;56833;52.254;5.598;2023-02-15T00:03:00;46.24;45.30;47.15;;
66456;Laerm;56833;52.254;5.598;2023-02-15T00:03:10;46.30;45.25;47.19;;
66456;Laerm;56833;52.254;5.598;2023-02-15T00:03:21;46.33;44.90;47.23;;
66456;Laerm;56833;52.254;5.598;2023-02-15T00:03:31;46.32;45.30;47.41;;
66456;Laerm;56833;52.254;5.598;2023-02-15T00:03:41;46.32;45.35;47.37;;
66456;Laerm;56833;52.254;5.598;2023-02-15T00:03:51;46.30;45.37;47.19;;
66456;Laerm;56833;52.254;5.598;2023-02-15T00:04:02;46.33;45.33;47.16;;
66456;Laerm;56833;52.254;5.598;2023-02-15T00:04:13;46.31;45.31;47.07;;
66456;Laerm;56833;52.254;5.598;2023-02-15T00:04:25;46.33;45.28;47.27;;
66456;Laerm;56833;52.254;5.598;2023-02-15T00:04:55;46.32;45.12;47.48;;
66456;Laerm;56833;52.254;5.598;2023-02-15T00:05:06;46.32;45.32;47.63;;
66456;Laerm;56833;52.254;5.598;2023-02-15T00:05:16;46.32;45.34;47.33;;
66456;Laerm;56833;52.254;5.598;2023-02-15T00:05:26;46.37;45.37;47.34;;
66456;Laerm;56833;52.254;5.598;2023-02-15T00:05:37;46.31;45.23;47.20;;
66456;Laerm;56833;52.254;5.598;2023-02-15T00:05:47;46.30;45.03;47.19;;
66456;Laerm;56833;52.254;5.598;2023-02-15T00:05:57;46.32;45.19;47.20;;
66456;Laerm;56833;52.254;5.598;2023-02-15T00:06:08;46.32;45.25;47.30;;
66456;Laerm;56833;52.254;5.598;2023-02-15T00:06:18;46.34;45.45;47.28;;
66456;Laerm;56833;52.254;5.598;2023-02-15T00:06:28;46.34;45.39;47.29;;
66456;Laerm;56833;52.254;5.598;2023-02-15T00:06:38;46.32;45.32;47.49;;
66456;Laerm;56833;52.254;5.598;2023-02-15T00:06:49;46.28;45.23;47.07;;
66456;Laerm;56833;52.254;5.598;2023-02-15T00:06:59;46.30;45.35;47.27;;
66456;Laerm;56833;52.254;5.598;2023-02-15T00:07:10;46.32;45.34;47.41;;
66456;Laerm;56833;52.254;5.598;2023-02-15T00:07:20;46.32;44.98;47.54;;
66456;Laerm;56833;52.254;5.598;2023-02-15T00:07:30;46.31;45.24;47.29;;
66456;Laerm;56833;52.254;5.598;2023-02-15T00:07:41;46.32;45.32;47.27;;
66456;Laerm;56833;52.254;5.598;2023-02-15T00:07:51;46.28;45.45;47.25;;
66456;Laerm;56833;52.254;5.598;2023-02-15T00:08:01;46.31;45.42;47.36;;
66456;Laerm;56833;52.254;5.598;2023-02-15T00:08:11;46.31;45.48;47.35;;
66456;Laerm;56833;52.254;5.598;2023-02-15T00:08:22;46.31;45.21;47.29;;
66456;Laerm;56833;52.254;5.598;2023-02-15T00:08:32;46.29;45.31;47.47;;
66456;Laerm;56833;52.254;5.598;2023-02-15T00:08:43;46.30;45.25;47.42;;
66456;Laerm;56833;52.254;5.598;2023-02-15T00:08:53;46.35;45.40;47.32;;
66456;Laerm;56833;52.254;5.598;2023-02-15T00:09:04;46.32;45.12;47.49;;
66456;Laerm;56833;52.254;5.598;2023-02-15T00:09:14;46.28;45.31;47.26;;
66456;Laerm;56833;52.254;5.598;2023-02-15T00:09:25;46.32;45.38;47.17;;
66456;Laerm;56833;52.254;5.598;2023-02-15T00:09:35;46.31;45.50;47.25;;
66456;Laerm;56833;52.254;5.598;2023-02-15T00:09:45;46.35;45.15;47.44;;
66456;Laerm;56833;52.254;5.598;2023-02-15T00:09:56;46.32;45.45;47.30;;
66456;Laerm;56833;52.254;5.598;2023-02-15T00:10:07;46.29;44.89;47.28;;
66456;Laerm;56833;52.254;5.598;2023-02-15T00:10:17;46.27;45.23;47.26;;
66456;Laerm;56833;52.254;5.598;2023-02-15T00:10:28;46.27;45.18;47.05;;
66456;Laerm;56833;52.254;5.598;2023-02-15T00:10:38;46.32;45.26;47.47;;
66456;Laerm;56833;52.254;5.598;2023-02-15T00:10:48;46.30;45.28;47.29;;
66456;Laerm;56833;52.254;5.598;2023-02-15T00:11:11;46.29;45.26;47.36;;
66456;Laerm;56833;52.254;5.598;2023-02-15T00:11:22;46.29;45.43;47.52;;
66456;Laerm;56833;52.254;5.598;2023-02-15T00:11:50;46.31;45.39;47.43;;
66456;Laerm;56833;52.254;5.598;2023-02-15T00:12:01;46.30;45.33;47.16;;
66456;Laerm;56833;52.254;5.598;2023-02-15T00:12:11;46.32;45.39;47.20;;
66456;Laerm;56833;52.254;5.598;2023-02-15T00:12:21;46.31;45.24;47.33;;
66456;Laerm;56833;52.254;5.598;2023-02-15T00:12:32;46.32;45.46;47.37;;
66456;Laerm;56833;52.254;5.598;2023-02-15T00:12:42;46.33;45.58;47.28;;
66456;Laerm;56833;52.254;5.598;2023-02-15T00:12:52;46.29;45.36;47.32;;
66456;Laerm;56833;52.254;5.598;2023-02-15T00:13:03;46.28;45.28;47.38;;
66456;Laerm;56833;52.254;5.598;2023-02-15T00:13:13;46.32;45.20;47.36;;
66456;Laerm;56833;52.254;5.598;2023-02-15T00:13:23;46.27;45.25;47.19;;
66456;Laerm;56833;52.254;5.598;2023-02-15T00:13:34;46.28;45.29;47.25;;
66456;Laerm;56833;52.254;5.598;2023-02-15T00:13:45;46.31;45.39;47.45;;
66456;Laerm;56833;52.254;5.598;2023-02-15T00:13:55;46.26;45.24;47.20;;
66456;Laerm;56833;52.254;5.598;2023-02-15T00:14:20;46.29;45.42;47.28;;
66456;Laerm;56833;52.254;5.598;2023-02-15T00:14:30;46.27;45.31;47.31;;
66456;Laerm;56833;52.254;5.598;2023-02-15T00:14:40;46.33;45.40;47.60;;
66456;Laerm;56833;52.254;5.598;2023-02-15T00:14:52;46.28;45.16;47.20;;
66456;Laerm;56833;52.254;5.598;2023-02-15T00:15:02;46.30;45.15;47.52;;
66456;Laerm;56833;52.254;5.598;2023-02-15T00:15:12;46.30;45.33;47.36;;
66456;Laerm;56833;52.254;5.598;2023-02-15T00:15:23;46.28;45.30;47.40;;
66456;Laerm;56833;52.254;5.598;2023-02-15T00:15:33;46.31;45.39;47.12;;
66456;Laerm;56833;52.254;5.598;2023-02-15T00:15:43;46.31;45.37;47.32;;
66456;Laerm;56833;52.254;5.598;2023-02-15T00:15:53;46.28;45.45;47.18;;
66456;Laerm;56833;52.254;5.598;2023-02-15T00:16:05;46.30;45.35;47.36;;
66456;Laerm;56833;52.254;5.598;2023-02-15T00:16:15;46.33;45.08;47.20;;
66456;Laerm;56833;52.254;5.598;2023-02-15T00:16:25;46.33;45.24;47.14;;
66456;Laerm;56833;52.254;5.598;2023-02-15T00:16:36;46.32;45.10;47.22;;
66456;Laerm;56833;52.254;5.598;2023-02-15T00:16:46;46.29;45.40;47.37;;
66456;Laerm;56833;52.254;5.598;2023-02-15T00:16:57;46.29;45.45;47.36;;
66456;Laerm;56833;52.254;5.598;2023-02-15T00:17:09;46.31;45.25;47.40;;
66456;Laerm;56833;52.254;5.598;2023-02-15T00:17:20;46.33;45.24;47.36;;
66456;Laerm;56833;52.254;5.598;2023-02-15T00:17:30;46.31;45.26;47.57;;
66456;Laerm;56833;52.254;5.598;2023-02-15T00:17:40;46.29;45.38;47.31;;
66456;Laerm;56833;52.254;5.598;2023-02-15T00:17:51;46.28;45.07;47.36;;
66456;Laerm;56833;52.254;5.598;2023-02-15T00:18:01;46.29;45.29;47.30;;
66456;Laerm;56833;52.254;5.598;2023-02-15T00:18:11;46.30;45.43;47.50;;
66456;Laerm;56833;52.254;5.598;2023-02-15T00:18:21;46.28;45.36;47.26;;
66456;Laerm;56833;52.254;5.598;2023-02-15T00:18:32;46.27;45.23;47.30;;
66456;Laerm;56833;52.254;5.598;2023-02-15T00:18:42;46.26;45.39;47.31;;
66456;Laerm;56833;52.254;5.598;2023-02-15T00:18:52;46.27;45.19;47.23;;
66456;Laerm;56833;52.254;5.598;2023-02-15T00:19:03;46.27;45.43;47.39;;
66456;Laerm;56833;52.254;5.598;2023-02-15T00:19:14;46.30;45.25;47.14;;
66456;Laerm;56833;52.254;5.598;2023-02-15T00:19:25;46.29;45.39;47.14;;
66456;Laerm;56833;52.254;5.598;2023-02-15T00:19:35;46.29;45.39;47.06;;
66456;Laerm;56833;52.254;5.598;2023-02-15T00:19:45;46.31;45.41;47.28;;
66456;Laerm;56833;52.254;5.598;2023-02-15T00:19:56;46.27;45.19;47.22;;
66456;Laerm;56833;52.254;5.598;2023-02-15T00:20:06;46.30;45.27;47.34;;
66456;Laerm;56833;52.254;5.598;2023-02-15T00:20:17;46.31;45.39;47.23;;
66456;Laerm;56833;52.254;5.598;2023-02-15T00:20:28;46.31;45.20;47.36;;
66456;Laerm;56833;52.254;5.598;2023-02-15T00:20:38;46.31;45.39;47.31;;
66456;Laerm;56833;52.254;5.598;2023-02-15T00:20:48;46.30;45.30;47.59;;
66456;Laerm;56833;52.254;5.598;2023-02-15T00:20:59;46.32;45.41;47.21;;
66456;Laerm;56833;52.254;5.598;2023-02-15T00:21:12;46.31;45.27;47.36;;
66456;Laerm;56833;52.254;5.598;2023-02-15T00:21:23;46.31;45.06;47.35;;
66456;Laerm;56833;52.254;5.598;2023-02-15T00:21:34;46.29;45.36;47.38;;
66456;Laerm;56833;52.254;5.598;2023-02-15T00:21:45;46.33;45.34;47.38;;
66456;Laerm;56833;52.254;5.598;2023-02-15T00:21:55;46.29;45.13;47.38;;
66456;Laerm;56833;52.254;5.598;2023-02-15T00:22:06;46.29;44.99;47.30;;
66456;Laerm;56833;52.254;5.598;2023-02-15T00:22:16;46.27;45.27;47.34;;
66456;Laerm;56833;52.254;5.598;2023-02-15T00:22:27;46.34;45.35;47.33;;
66456;Laerm;56833;52.254;5.598;2023-02-15T00:22:37;46.31;45.35;47.36;;
66456;Laerm;56833;52.254;5.598;2023-02-15T00:22:48;46.31;45.26;47.17;;
66456;Laerm;56833;52.254;5.598;2023-02-15T00:22:58;46.33;45.36;47.45;;
66456;Laerm;56833;52.254;5.598;2023-02-15T00:23:08;46.26;45.40;47.32;;
66456;Laerm;56833;52.254;5.598;2023-02-15T00:23:19;46.29;45.23;47.27;;
66456;Laerm;56833;52.254;5.598;2023-02-15T00:23:29;46.26;45.27;47.45;;
66456;Laerm;56833;52.254;5.598;2023-02-15T00:23:39;46.28;45.22;47.15;;
66456;Laerm;56833;52.254;5.598;2023-02-15T00:23:50;46.32;45.33;47.11;;
66456;Laerm;56833;52.254;5.598;2023-02-15T00:24:01;46.28;45.30;47.26;;
66456;Laerm;56833;52.254;5.598;2023-02-15T00:24:12;46.28;45.20;47.09;;
66456;Laerm;56833;52.254;5.598;2023-02-15T00:24:22;46.26;45.35;47.18;;
66456;Laerm;56833;52.254;5.598;2023-02-15T00:24:33;46.29;45.20;47.15;;
66456;Laerm;56833;52.254;5.598;2023-02-15T00:24:43;46.31;45.29;47.21;;
66456;Laerm;56833;52.254;5.598;2023-02-15T00:24:53;46.33;45.23;47.48;;
66456;Laerm;56833;52.254;5.598;2023-02-15T00:25:03;46.34;45.35;47.34;;
66456;Laerm;56833;52.254;5.598;2023-02-15T00:25:14;46.30;45.43;47.21;;
66456;Laerm;56833;52.254;5.598;2023-02-15T00:25:24;46.30;45.38;47.16;;
66456;Laerm;56833;52.254;5.598;2023-02-15T00:25:34;46.28;45.29;47.25;;
66456;Laerm;56833;52.254;5.598;2023-02-15T00:25:45;46.29;45.24;47.26;;
66456;Laerm;56833;52.254;5.598;2023-02-15T00:26:08;46.30;45.21;47.35;;
66456;Laerm;56833;52.254;5.598;2023-02-15T00:26:19;46.30;45.23;47.77;;
66456;Laerm;56833;52.254;5.598;2023-02-15T00:26:29;46.30;45.30;47.22;;
66456;Laerm;56833;52.254;5.598;2023-02-15T00:26:40;46.32;45.39;47.28;;
66456;Laerm;56833;52.254;5.598;2023-02-15T00:26:51;46.32;45.41;47.22;;
66456;Laerm;56833;52.254;5.598;2023-02-15T00:27:01;46.29;45.43;47.20;;
66456;Laerm;56833;52.254;5.598;2023-02-15T00:27:11;46.31;45.29;47.14;;
66456;Laerm;56833;52.254;5.598;2023-02-15T00:27:22;46.32;45.29;47.35;;
66456;Laerm;56833;52.254;5.598;2023-02-15T00:27:33;46.27;45.22;47.63;;
66456;Laerm;56833;52.254;5.598;2023-02-15T00:27:43;46.25;45.37;47.13;;
66456;Laerm;56833;52.254;5.598;2023-02-15T00:27:53;46.27;45.39;47.23;;
66456;Laerm;56833;52.254;5.598;2023-02-15T00:28:03;46.27;44.96;46.97;;
66456;Laerm;56833;52.254;5.598;2023-02-15T00:28:14;46.27;45.44;47.27;;
66456;Laerm;56833;52.254;5.598;2023-02-15T00:28:24;46.26;45.08;47.21;;
66456;Laerm;56833;52.254;5.598;2023-02-15T00:28:35;46.29;45.23;47.44;;
66456;Laerm;56833;52.254;5.598;2023-02-15T00:28:45;46.27;45.00;47.22;;
66456;Laerm;56833;52.254;5.598;2023-02-15T00:28:56;46.25;45.34;47.15;;
66456;Laerm;56833;52.254;5.598;2023-02-15T00:29:08;46.26;45.18;47.43;;
66456;Laerm;56833;52.254;5.598;2023-02-15T00:29:19;46.30;45.06;47.38;;
66456;Laerm;56833;52.254;5.598;2023-02-15T00:29:30;46.28;45.48;47.13;;
66456;Laerm;56833;52.254;5.598;2023-02-15T00:29:40;46.27;45.38;47.37;;
66456;Laerm;56833;52.254;5.598;2023-02-15T00:29:50;46.27;45.36;47.39;;
66456;Laerm;56833;52.254;5.598;2023-02-15T00:30:01;46.28;45.19;47.05;;
66456;Laerm;56833;52.254;5.598;2023-02-15T00:30:11;46.30;45.23;47.18;;
66456;Laerm;56833;52.254;5.598;2023-02-15T00:30:22;46.25;45.16;47.47;;
66456;Laerm;56833;52.254;5.598;2023-02-15T00:30:32;46.28;45.33;47.19;;
66456;Laerm;56833;52.254;5.598;2023-02-15T00:30:42;46.27;45.32;47.51;;
66456;Laerm;56833;52.254;5.598;2023-02-15T00:30:52;46.28;45.35;47.43;;
66456;Laerm;56833;52.254;5.598;2023-02-15T00:31:04;46.24;45.21;47.30;;
66456;Laerm;56833;52.254;5.598;2023-02-15T00:31:14;46.26;45.45;47.25;;
66456;Laerm;56833;52.254;5.598;2023-02-15T00:31:25;46.26;45.20;47.46;;
66456;Laerm;56833;52.254;5.598;2023-02-15T00:31:35;46.28;45.22;47.21;;
66456;Laerm;56833;52.254;5.598;2023-02-15T00:31:46;46.21;45.34;47.45;;
66456;Laerm;56833;52.254;5.598;2023-02-15T00:31:56;46.31;44.95;47.25;;
66456;Laerm;56833;52.254;5.598;2023-02-15T00:32:07;46.27;45.19;47.29;;
66456;Laerm;56833;52.254;5.598;2023-02-15T00:32:17;46.24;45.20;47.11;;
66456;Laerm;56833;52.254;5.598;2023-02-15T00:32:27;46.29;45.42;47.19;;
66456;Laerm;56833;52.254;5.598;2023-02-15T00:32:37;46.24;45.14;47.15;;
66456;Laerm;56833;52.254;5.598;2023-02-15T00:32:48;46.26;45.28;47.28;;
66456;Laerm;56833;52.254;5.598;2023-02-15T00:32:58;46.27;45.15;47.60;;
66456;Laerm;56833;52.254;5.598;2023-02-15T00:33:08;46.29;45.21;47.25;;
66456;Laerm;56833;52.254;5.598;2023-02-15T00:33:18;46.27;45.39;47.22;;
66456;Laerm;56833;52.254;5.598;2023-02-15T00:33:29;46.26;45.15;47.38;;
66456;Laerm;56833;52.254;5.598;2023-02-15T00:33:39;46.28;45.26;47.29;;
66456;Laerm;56833;52.254;5.598;2023-02-15T00:33:49;46.25;45.07;47.23;;
66456;Laerm;56833;52.254;5.598;2023-02-15T00:34:33;46.27;45.27;47.23;;
66456;Laerm;56833;52.254;5.598;2023-02-15T00:34:36;46.26;44.96;47.52;;
66456;Laerm;56833;52.254;5.598;2023-02-15T00:34:46;46.23;45.28;47.30;;
66456;Laerm;56833;52.254;5.598;2023-02-15T00:34:57;46.26;45.20;47.28;;
66456;Laerm;56833;52.254;5.598;2023-02-15T00:35:07;46.23;45.21;47.29;;
66456;Laerm;56833;52.254;5.598;2023-02-15T00:35:18;46.26;45.11;47.36;;
66456;Laerm;56833;52.254;5.598;2023-02-15T00:35:28;46.25;45.10;47.43;;
66456;Laerm;56833;52.254;5.598;2023-02-15T00:35:39;46.26;45.16;47.41;;
66456;Laerm;56833;52.254;5.598;2023-02-15T00:35:55;46.27;44.71;47.35;;
66456;Laerm;56833;52.254;5.598;2023-02-15T00:36:06;46.26;45.01;47.29;;
66456;Laerm;56833;52.254;5.598;2023-02-15T00:36:17;46.26;45.38;47.15;;
66456;Laerm;56833;52.254;5.598;2023-02-15T00:36:27;46.26;45.24;47.24;;
66456;Laerm;56833;52.254;5.598;2023-02-15T00:36:37;46.25;45.10;47.64;;
66456;Laerm;56833;52.254;5.598;2023-02-15T00:36:48;46.25;45.26;47.07;;
66456;Laerm;56833;52.254;5.598;2023-02-15T00:36:58;46.28;45.33;47.23;;
66456;Laerm;56833;52.254;5.598;2023-02-15T00:37:08;46.28;45.12;47.45;;
66456;Laerm;56833;52.254;5.598;2023-02-15T00:37:19;46.25;45.14;47.32;;
66456;Laerm;56833;52.254;5.598;2023-02-15T00:37:29;46.24;45.27;47.05;;
66456;Laerm;56833;52.254;5.598;2023-02-15T00:37:39;46.22;45.26;47.09;;
66456;Laerm;56833;52.254;5.598;2023-02-15T00:37:49;46.27;45.17;47.08;;
66456;Laerm;56833;52.254;5.598;2023-02-15T00:38:00;46.28;45.49;47.32;;
66456;Laerm;56833;52.254;5.598;2023-02-15T00:38:10;46.24;45.12;47.17;;
66456;Laerm;56833;52.254;5.598;2023-02-15T00:38:20;46.24;45.28;47.42;;
66456;Laerm;56833;52.254;5.598;2023-02-15T00:38:31;46.23;45.03;47.28;;
66456;Laerm;56833;52.254;5.598;2023-02-15T00:38:41;46.26;45.30;47.06;;
66456;Laerm;56833;52.254;5.598;2023-02-15T00:38:52;46.28;45.27;47.49;;
66456;Laerm;56833;52.254;5.598;2023-02-15T00:39:02;46.27;45.05;47.11;;
66456;Laerm;56833;52.254;5.598;2023-02-15T00:39:13;46.23;45.37;47.37;;
66456;Laerm;56833;52.254;5.598;2023-02-15T00:39:23;46.27;45.12;47.16;;
66456;Laerm;56833;52.254;5.598;2023-02-15T00:39:34;46.24;45.29;47.16;;
66456;Laerm;56833;52.254;5.598;2023-02-15T00:39:44;46.27;45.30;47.28;;
66456;Laerm;56833;52.254;5.598;2023-02-15T00:39:54;46.23;45.19;47.23;;
66456;Laerm;56833;52.254;5.598;2023-02-15T00:40:05;46.27;45.28;47.24;;
66456;Laerm;56833;52.254;5.598;2023-02-15T00:40:15;46.28;45.50;47.13;;
66456;Laerm;56833;52.254;5.598;2023-02-15T00:40:25;46.28;45.32;47.28;;
66456;Laerm;56833;52.254;5.598;2023-02-15T00:40:36;46.26;45.26;47.24;;
66456;Laerm;56833;52.254;5.598;2023-02-15T00:40:51;46.26;45.24;47.43;;
66456;Laerm;56833;52.254;5.598;2023-02-15T00:41:03;46.27;45.24;47.60;;
66456;Laerm;56833;52.254;5.598;2023-02-15T00:41:13;46.26;45.30;47.26;;
66456;Laerm;56833;52.254;5.598;2023-02-15T00:41:24;46.25;45.30;47.24;;
66456;Laerm;56833;52.254;5.598;2023-02-15T00:41:34;46.25;45.49;47.39;;
66456;Laerm;56833;52.254;5.598;2023-02-15T00:41:45;46.28;44.98;47.34;;
66456;Laerm;56833;52.254;5.598;2023-02-15T00:41:55;46.27;45.24;47.16;;
66456;Laerm;56833;52.254;5.598;2023-02-15T00:42:05;46.25;45.24;47.42;;
66456;Laerm;56833;52.254;5.598;2023-02-15T00:42:15;46.30;45.21;47.42;;
66456;Laerm;56833;52.254;5.598;2023-02-15T00:42:26;46.29;45.27;47.23;;
66456;Laerm;56833;52.254;5.598;2023-02-15T00:42:36;46.24;45.21;47.09;;
66456;Laerm;56833;52.254;5.598;2023-02-15T00:42:46;46.26;45.10;47.15;;
66456;Laerm;56833;52.254;5.598;2023-02-15T00:42:56;46.26;45.27;47.28;;
66456;Laerm;56833;52.254;5.598;2023-02-15T00:43:08;46.27;45.35;47.63;;
66456;Laerm;56833;52.254;5.598;2023-02-15T00:43:18;46.21;45.30;47.12;;
66456;Laerm;56833;52.254;5.598;2023-02-15T00:43:29;46.27;45.14;47.17;;
66456;Laerm;56833;52.254;5.598;2023-02-15T00:43:40;46.24;45.13;47.29;;
66456;Laerm;56833;52.254;5.598;2023-02-15T00:43:50;46.26;45.30;47.22;;
66456;Laerm;56833;52.254;5.598;2023-02-15T00:44:00;46.25;45.50;47.23;;
66456;Laerm;56833;52.254;5.598;2023-02-15T00:44:11;46.28;45.31;47.26;;
66456;Laerm;56833;52.254;5.598;2023-02-15T00:44:21;46.28;45.27;47.16;;
66456;Laerm;56833;52.254;5.598;2023-02-15T00:44:32;46.27;45.25;47.09;;
66456;Laerm;56833;52.254;5.598;2023-02-15T00:44:42;46.27;45.10;47.23;;
66456;Laerm;56833;52.254;5.598;2023-02-15T00:44:52;46.24;45.26;47.40;;
66456;Laerm;56833;52.254;5.598;2023-02-15T00:45:02;46.27;45.41;47.25;;
66456;Laerm;56833;52.254;5.598;2023-02-15T00:45:13;46.24;44.94;47.09;;
66456;Laerm;56833;52.254;5.598;2023-02-15T00:45:23;46.21;45.14;47.16;;
66456;Laerm;56833;52.254;5.598;2023-02-15T00:45:33;46.25;45.14;47.41;;
66456;Laerm;56833;52.254;5.598;2023-02-15T00:45:44;46.21;45.15;47.16;;
66456;Laerm;56833;52.254;5.598;2023-02-15T00:45:54;46.23;45.20;47.18;;
66456;Laerm;56833;52.254;5.598;2023-02-15T00:46:05;46.23;45.09;47.25;;
66456;Laerm;56833;52.254;5.598;2023-02-15T00:46:16;46.20;45.15;47.28;;
66456;Laerm;56833;52.254;5.598;2023-02-15T00:46:26;46.24;45.36;47.07;;
66456;Laerm;56833;52.254;5.598;2023-02-15T00:46:36;46.23;45.02;47.30;;
66456;Laerm;56833;52.254;5.598;2023-02-15T00:46:46;46.23;45.28;47.22;;
66456;Laerm;56833;52.254;5.598;2023-02-15T00:46:57;46.25;45.38;47.22;;
66456;Laerm;56833;52.254;5.598;2023-02-15T00:47:07;46.26;45.19;47.06;;
66456;Laerm;56833;52.254;5.598;2023-02-15T00:47:17;46.26;45.28;47.15;;
66456;Laerm;56833;52.254;5.598;2023-02-15T00:47:27;46.22;45.36;47.07;;
66456;Laerm;56833;52.254;5.598;2023-02-15T00:47:38;46.22;45.22;47.25;;
66456;Laerm;56833;52.254;5.598;2023-02-15T00:47:48;46.21;45.10;47.32;;
66456;Laerm;56833;52.254;5.598;2023-02-15T00:47:58;46.23;45.36;47.09;;
66456;Laerm;56833;52.254;5.598;2023-02-15T00:48:08;46.25;45.34;47.19;;
66456;Laerm;56833;52.254;5.598;2023-02-15T00:48:19;46.22;45.41;47.08;;
66456;Laerm;56833;52.254;5.598;2023-02-15T00:48:29;46.25;45.02;47.11;;
66456;Laerm;56833;52.254;5.598;2023-02-15T00:48:40;46.26;45.21;47.09;;
66456;Laerm;56833;52.254;5.598;2023-02-15T00:48:50;46.23;45.12;47.33;;
66456;Laerm;56833;52.254;5.598;2023-02-15T00:49:00;46.22;45.26;47.12;;
66456;Laerm;56833;52.254;5.598;2023-02-15T00:49:11;46.27;45.42;47.13;;
66456;Laerm;56833;52.254;5.598;2023-02-15T00:49:21;46.25;45.17;47.33;;
66456;Laerm;56833;52.254;5.598;2023-02-15T00:49:31;46.23;45.34;47.36;;
66456;Laerm;56833;52.254;5.598;2023-02-15T00:49:41;46.26;45.47;47.12;;
66456;Laerm;56833;52.254;5.598;2023-02-15T00:49:52;46.22;45.11;47.18;;
66456;Laerm;56833;52.254;5.598;2023-02-15T00:50:02;46.20;45.13;47.28;;
66456;Laerm;56833;52.254;5.598;2023-02-15T00:50:13;46.21;44.94;47.20;;
66456;Laerm;56833;52.254;5.598;2023-02-15T00:50:23;46.24;45.27;47.29;;
66456;Laerm;56833;52.254;5.598;2023-02-15T00:50:33;46.26;45.14;47.69;;
66456;Laerm;56833;52.254;5.598;2023-02-15T00:50:53;46.27;45.30;47.18;;
66456;Laerm;56833;52.254;5.598;2023-02-15T00:51:04;46.27;45.17;47.41;;
66456;Laerm;56833;52.254;5.598;2023-02-15T00:51:14;46.27;45.33;47.48;;
66456;Laerm;56833;52.254;5.598;2023-02-15T00:51:25;46.24;45.34;47.21;;
66456;Laerm;56833;52.254;5.598;2023-02-15T00:51:36;46.21;45.34;47.17;;
66456;Laerm;56833;52.254;5.598;2023-02-15T00:51:46;46.27;45.22;47.21;;
66456;Laerm;56833;52.254;5.598;2023-02-15T00:51:56;46.23;45.12;47.21;;
66456;Laerm;56833;52.254;5.598;2023-02-15T00:52:06;46.22;44.87;47.15;;
66456;Laerm;56833;52.254;5.598;2023-02-15T00:52:17;46.26;45.13;47.34;;
66456;Laerm;56833;52.254;5.598;2023-02-15T00:52:27;46.23;45.34;47.30;;
66456;Laerm;56833;52.254;5.598;2023-02-15T00:52:37;46.25;45.30;47.29;;
66456;Laerm;56833;52.254;5.598;2023-02-15T00:52:47;46.25;45.24;47.21;;
66456;Laerm;56833;52.254;5.598;2023-02-15T00:52:58;46.22;44.76;47.16;;
66456;Laerm;56833;52.254;5.598;2023-02-15T00:53:08;46.23;45.31;47.11;;
66456;Laerm;56833;52.254;5.598;2023-02-15T00:53:18;46.26;45.28;47.14;;
66456;Laerm;56833;52.254;5.598;2023-02-15T00:53:29;46.26;45.23;47.40;;
66456;Laerm;56833;52.254;5.598;2023-02-15T00:53:39;46.25;45.32;47.09;;
66456;Laerm;56833;52.254;5.598;2023-02-15T00:53:49;46.22;45.38;47.09;;
66456;Laerm;56833;52.254;5.598;2023-02-15T00:54:00;46.22;44.79;47.07;;
66456;Laerm;56833;52.254;5.598;2023-02-15T00:54:10;46.24;44.89;47.10;;
66456;Laerm;56833;52.254;5.598;2023-02-15T00:54:20;46.24;45.28;47.28;;
66456;Laerm;56833;52.254;5.598;2023-02-15T00:54:31;46.28;45.24;47.61;;
66456;Laerm;56833;52.254;5.598;2023-02-15T00:54:41;46.23;45.26;47.39;;
66456;Laerm;56833;52.254;5.598;2023-02-15T00:54:51;46.21;45.19;47.28;;
66456;Laerm;56833;52.254;5.598;2023-02-15T00:55:01;46.26;44.87;47.57;;
66456;Laerm;56833;52.254;5.598;2023-02-15T00:55:12;46.23;45.18;47.17;;
66456;Laerm;56833;52.254;5.598;2023-02-15T00:55:22;46.19;45.09;47.05;;
66456;Laerm;56833;52.254;5.598;2023-02-15T00:55:32;46.23;45.13;47.54;;
66456;Laerm;56833;52.254;5.598;2023-02-15T00:55:43;46.25;45.21;47.23;;
66456;Laerm;56833;52.254;5.598;2023-02-15T00:55:53;46.27;45.35;47.14;;
66456;Laerm;56833;52.254;5.598;2023-02-15T00:56:03;46.26;45.26;47.08;;
66456;Laerm;56833;52.254;5.598;2023-02-15T00:56:14;46.24;45.28;47.26;;
66456;Laerm;56833;52.254;5.598;2023-02-15T00:56:24;46.27;45.43;47.23;;
66456;Laerm;56833;52.254;5.598;2023-02-15T00:56:34;46.27;45.17;47.33;;
66456;Laerm;56833;52.254;5.598;2023-02-15T00:56:45;46.27;45.24;47.24;;
66456;Laerm;56833;52.254;5.598;2023-02-15T00:56:55;46.27;45.15;47.48;;
66456;Laerm;56833;52.254;5.598;2023-02-15T00:57:05;46.26;45.30;47.40;;
66456;Laerm;56833;52.254;5.598;2023-02-15T00:57:16;46.25;45.31;47.28;;
66456;Laerm;56833;52.254;5.598;2023-02-15T00:57:26;46.25;45.31;47.33;;
66456;Laerm;56833;52.254;5.598;2023-02-15T00:57:36;46.29;45.21;47.20;;
66456;Laerm;56833;52.254;5.598;2023-02-15T00:57:47;46.29;45.24;47.19;;
66456;Laerm;56833;52.254;5.598;2023-02-15T00:57:57;46.28;45.32;47.15;;
66456;Laerm;56833;52.254;5.598;2023-02-15T00:58:08;46.27;45.09;47.35;;
66456;Laerm;56833;52.254;5.598;2023-02-15T00:58:18;46.24;45.32;47.24;;
66456;Laerm;56833;52.254;5.598;2023-02-15T00:58:28;46.30;45.33;47.56;;
66456;Laerm;56833;52.254;5.598;2023-02-15T00:58:38;46.30;45.27;47.28;;
66456;Laerm;56833;52.254;5.598;2023-02-15T00:58:49;46.27;45.06;47.34;;
66456;Laerm;56833;52.254;5.598;2023-02-15T00:58:59;46.27;45.32;47.26;;
66456;Laerm;56833;52.254;5.598;2023-02-15T00:59:09;46.26;45.17;47.25;;
66456;Laerm;56833;52.254;5.598;2023-02-15T00:59:19;46.27;45.36;47.39;;
66456;Laerm;56833;52.254;5.598;2023-02-15T00:59:30;46.30;45.26;47.29;;
66456;Laerm;56833;52.254;5.598;2023-02-15T00:59:40;46.26;45.02;47.29;;
66456;Laerm;56833;52.254;5.598;2023-02-15T00:59:50;46.25;45.26;47.16;;
66456;Laerm;56833;52.254;5.598;2023-02-15T01:00:01;46.26;45.41;47.55;;
66456;Laerm;56833;52.254;5.598;2023-02-15T01:00:11;46.25;45.23;47.57;;
66456;Laerm;56833;52.254;5.598;2023-02-15T01:00:22;46.27;45.37;47.35;;